• Join FlightAware (Why Join?)
  • Login
  • US Flag 
11:32AM EST


 

Airport Tracker/Info


-or-


 

Live Flight TrackerFlight Track Log ✈ CSN3364 ✈ 21-Jul-2013 ✈ ZHLY / LYA - ZGGG / CAN

Flight Track Log - Related Links

Times and Time Zones

All times are in EDT time to prevent confusion due to time zone crossing. See the CSN3364 flight status page for this flight to view local times or setup timezone preferences in your user account.

Time Position Orientation Groundspeed Altitude Reporting Facility
EDT Latitude Longitude Course Direction KTS MPH feet Rate Location/Type
11:08PM 34.6341 112.3980 176° South  Level Estimated
11:09PM 34.5270 112.4076 176° South  Level Estimated
11:10PM 34.4200 112.4172 176° South  Level Estimated
11:11PM 34.3129 112.4268 176° South  Level Estimated
11:12PM 34.2059 112.4363 176° South  Level Estimated
11:13PM 34.0988 112.4458 176° South  Level Estimated
11:14PM 33.9918 112.4553 176° South  Level Estimated
11:15PM 33.8847 112.4648 176° South  Level Estimated
11:16PM 33.7777 112.4743 176° South  Level Estimated
11:17PM 33.6706 112.4837 176° South  Level Estimated
11:18PM 33.5635 112.4931 176° South  Level Estimated
11:19PM 33.4565 112.5025 176° South  Level Estimated
11:20PM 33.3494 112.5118 176° South  Level Estimated
11:21PM 33.2424 112.5212 176° South  Level Estimated
11:22PM 33.1353 112.5305 176° South  Level Estimated
11:23PM 33.0283 112.5398 176° South  Level Estimated
11:24PM 32.9212 112.5490 176° South  Level Estimated
11:25PM 32.8141 112.5583 176° South  Level Estimated
11:26PM 32.7071 112.5675 176° South  Level Estimated
11:27PM 32.6000 112.5767 176° South  Level Estimated
11:28PM 32.4930 112.5859 176° South  Level Estimated
11:29PM 32.3859 112.5950 176° South  Level Estimated
11:30PM 32.2788 112.6042 176° South  Level Estimated
11:31PM 32.1718 112.6133 176° South  Level Estimated
11:32PM 32.0647 112.6224 176° South  Level Estimated
11:33PM 31.9576 112.6314 176° South  Level Estimated
11:34PM 31.8506 112.6405 176° South  Level Estimated
11:35PM 31.7435 112.6495 176° South  Level Estimated
11:36PM 31.6364 112.6585 176° South  Level Estimated
11:37PM 31.5294 112.6675 176° South  Level Estimated
11:38PM 31.4223 112.6765 176° South  Level Estimated
11:39PM 31.3152 112.6854 176° South  Level Estimated
11:40PM 31.2082 112.6944 176° South  Level Estimated
11:41PM 31.1011 112.7032 176° South  Level Estimated
11:42PM 30.9940 112.7121 176° South  Level Estimated
11:43PM 30.8869 112.7210 176° South  Level Estimated
11:44PM 30.7799 112.7298 176° South  Level Estimated
11:45PM 30.6728 112.7387 176° South  Level Estimated
11:46PM 30.5657 112.7475 176° South  Level Estimated
11:47PM 30.4587 112.7563 176° South  Level Estimated
11:48PM 30.3516 112.7650 176° South  Level Estimated
11:49PM 30.2445 112.7738 176° South  Level Estimated
11:50PM 30.1374 112.7825 176° South  Level Estimated
11:51PM 30.0303 112.7912 176° South  Level Estimated
11:52PM 29.9233 112.7999 176° South  Level Estimated
11:53PM 29.8162 112.8086 176° South  Level Estimated
11:54PM 29.7091 112.8172 176° South  Level Estimated
11:55PM 29.6020 112.8259 176° South  Level Estimated
11:56PM 29.4949 112.8345 176° South  Level Estimated
11:57PM 29.3879 112.8431 176° South  Level Estimated
11:58PM 29.2808 112.8517 176° South  Level Estimated
11:59PM 29.1737 112.8602 176° South  Level Estimated
12:00AM 29.0666 112.8688 176° South  Level Estimated
12:01AM 28.9596 112.8773 176° South  Level Estimated
12:02AM 28.8525 112.8858 176° South  Level Estimated
12:03AM 28.7454 112.8943 176° South  Level Estimated
12:04AM 28.6383 112.9028 176° South  Level Estimated
12:05AM 28.5312 112.9112 176° South  Level Estimated
12:06AM 28.4242 112.9197 176° South  Level Estimated
12:07AM 28.3171 112.9281 176° South  Level Estimated
12:08AM 28.2100 112.9365 176° South  Level Estimated
12:09AM 28.1029 112.9449 176° South  Level Estimated
12:10AM 27.9958 112.9533 176° South  Level Estimated
12:11AM 27.8887 112.9616 176° South  Level Estimated
12:12AM 27.7816 112.9700 176° South  Level Estimated
12:13AM 27.6745 112.9783 176° South  Level Estimated
12:14AM 27.5674 112.9866 176° South  Level Estimated
12:15AM 27.4603 112.9949 176° South  Level Estimated
12:16AM 27.3533 113.0032 176° South  Level Estimated
12:17AM 27.2462 113.0114 176° South  Level Estimated
12:18AM 27.1391 113.0197 176° South  Level Estimated
12:19AM 27.0320 113.0279 176° South  Level Estimated
12:20AM 26.9249 113.0361 176° South  Level Estimated
12:21AM 26.8178 113.0443 176° South  Level Estimated
12:22AM 26.7107 113.0525 176° South  Level Estimated
12:23AM 26.6036 113.0606 176° South  Level Estimated
12:24AM 26.4965 113.0688 176° South  Level Estimated
12:25AM 26.3894 113.0769 176° South  Level Estimated
12:26AM 26.2824 113.0850 176° South  Level Estimated
12:27AM 26.1753 113.0931 176° South  Level Estimated
12:28AM 26.0682 113.1012 176° South  Level Estimated
12:29AM 25.9611 113.1093 176° South  Level Estimated
12:30AM 25.8540 113.1174 176° South  Level Estimated
12:31AM 25.7469 113.1254 176° South  Level Estimated
12:32AM 25.6398 113.1335 176° South  Level Estimated
12:33AM 25.5327 113.1415 176° South  Level Estimated
12:34AM 25.4256 113.1495 176° South  Level Estimated
12:35AM 25.3185 113.1575 176° South  Level Estimated
12:36AM 25.2114 113.1654 176° South  Level Estimated
12:37AM 25.1043 113.1734 176° South  Level Estimated
12:38AM 24.9972 113.1813 176° South  Level Estimated
12:39AM 24.8901 113.1893 176° South  Level Estimated
12:40AM 24.7830 113.1972 176° South  Level Estimated
12:41AM 24.6759 113.2051 176° South  Level Estimated
12:42AM 24.5688 113.2130 176° South  Level Estimated
12:43AM 24.4617 113.2209 176° South  Level Estimated
12:44AM 24.3546 113.2287 176° South  Level Estimated
12:45AM 24.2475 113.2366 176° South  Level Estimated
12:46AM 24.1404 113.2444 176° South  Level Estimated
12:47AM 24.0333 113.2522 176° South  Level Estimated
12:48AM 23.9262 113.2600 176° South  Level Estimated
12:49AM 23.8191 113.2679 176° South  Level Estimated
12:50AM 23.7120 113.2756 176° South  Level Estimated
12:51AM 23.6049 113.2834 176° South  Level Estimated
12:52AM 23.4977 113.2912 176° South  Level Estimated
12:53AM 23.3924 113.2988 176° South  Level Estimated
12:54AM 23.3924 113.2988 223° Southwest  Level Estimated
12:55AM 23.3924 113.2988 223° Southwest  Level Estimated
12:56AM 23.3924 113.2988 223° Southwest  Level Estimated
12:57AM 23.3924 113.2988 223° Southwest  Level Estimated
12:58AM 23.3924 113.2988 223° Southwest  Level Estimated
12:59AM 23.3924 113.2988 223° Southwest  Level Estimated
01:00AM 23.3924 113.2988 223° Southwest  Level Estimated
01:01AM 23.3924 113.2988 223° Southwest  Level Estimated
01:02AM 23.3924 113.2988 223° Southwest  Level Estimated
01:03AM 23.3924 113.2988 223° Southwest  Level Estimated
01:04AM 23.3924 113.2988 223° Southwest  Level Estimated
01:05AM 23.3924 113.2988 223° Southwest  Level Estimated
01:06AM 23.3924 113.2988 223° Southwest  Level Estimated
01:07AM 23.3924 113.2988 223° Southwest  Level Estimated